sensor_id;sensor_type;location;lat;lon;timestamp;temperature;humidity
14531;DHT22;7352;50.866;4.366;2023-08-20T00:02:23;23.20;99.90
14531;DHT22;7352;50.866;4.366;2023-08-20T00:04:51;23.00;99.90
14531;DHT22;7352;50.866;4.366;2023-08-20T00:07:20;22.90;99.90
14531;DHT22;7352;50.866;4.366;2023-08-20T00:09:47;22.80;99.90
14531;DHT22;7352;50.866;4.366;2023-08-20T00:12:15;22.80;99.90
14531;DHT22;7352;50.866;4.366;2023-08-20T00:14:55;23.00;99.90
14531;DHT22;7352;50.866;4.366;2023-08-20T00:17:22;22.90;99.90
14531;DHT22;7352;50.866;4.366;2023-08-20T00:19:54;22.90;99.90
14531;DHT22;7352;50.866;4.366;2023-08-20T00:22:22;22.80;99.90
14531;DHT22;7352;50.866;4.366;2023-08-20T00:24:50;22.80;99.90
14531;DHT22;7352;50.866;4.366;2023-08-20T00:27:18;22.90;99.90
14531;DHT22;7352;50.866;4.366;2023-08-20T00:29:45;22.70;99.90
14531;DHT22;7352;50.866;4.366;2023-08-20T00:32:13;22.60;99.90
14531;DHT22;7352;50.866;4.366;2023-08-20T00:34:41;22.70;99.90
14531;DHT22;7352;50.866;4.366;2023-08-20T00:37:07;22.90;99.90
14531;DHT22;7352;50.866;4.366;2023-08-20T00:39:34;22.80;99.90
14531;DHT22;7352;50.866;4.366;2023-08-20T00:42:01;22.80;99.90
14531;DHT22;7352;50.866;4.366;2023-08-20T00:44:32;22.60;99.90
14531;DHT22;7352;50.866;4.366;2023-08-20T00:47:01;22.70;99.90
14531;DHT22;7352;50.866;4.366;2023-08-20T00:49:29;22.60;99.90
14531;DHT22;7352;50.866;4.366;2023-08-20T00:51:56;22.60;99.90
14531;DHT22;7352;50.866;4.366;2023-08-20T00:54:24;22.70;99.90
14531;DHT22;7352;50.866;4.366;2023-08-20T00:56:52;23.00;99.90
14531;DHT22;7352;50.866;4.366;2023-08-20T00:59:19;23.00;99.90
14531;DHT22;7352;50.866;4.366;2023-08-20T01:01:48;23.00;99.90
14531;DHT22;7352;50.866;4.366;2023-08-20T01:04:15;22.80;99.90
14531;DHT22;7352;50.866;4.366;2023-08-20T01:06:50;23.00;99.90
14531;DHT22;7352;50.866;4.366;2023-08-20T01:09:30;22.90;99.90
14531;DHT22;7352;50.866;4.366;2023-08-20T01:12:03;22.80;99.90
14531;DHT22;7352;50.866;4.366;2023-08-20T01:14:30;22.90;99.90
14531;DHT22;7352;50.866;4.366;2023-08-20T01:16:58;23.10;99.90
14531;DHT22;7352;50.866;4.366;2023-08-20T01:19:25;23.20;99.90
14531;DHT22;7352;50.866;4.366;2023-08-20T01:22:21;23.20;99.90
14531;DHT22;7352;50.866;4.366;2023-08-20T01:25:04;23.40;99.90
14531;DHT22;7352;50.866;4.366;2023-08-20T01:27:42;23.40;99.90
14531;DHT22;7352;50.866;4.366;2023-08-20T01:30:12;23.40;99.90
14531;DHT22;7352;50.866;4.366;2023-08-20T01:32:39;23.20;99.90
14531;DHT22;7352;50.866;4.366;2023-08-20T01:35:11;23.20;99.90
14531;DHT22;7352;50.866;4.366;2023-08-20T01:37:39;23.20;99.90
14531;DHT22;7352;50.866;4.366;2023-08-20T01:40:07;23.20;99.90
14531;DHT22;7352;50.866;4.366;2023-08-20T01:42:36;23.30;99.90
14531;DHT22;7352;50.866;4.366;2023-08-20T01:45:04;23.40;99.90
14531;DHT22;7352;50.866;4.366;2023-08-20T01:47:33;23.10;99.90
14531;DHT22;7352;50.866;4.366;2023-08-20T01:50:00;23.20;99.90
14531;DHT22;7352;50.866;4.366;2023-08-20T01:52:29;23.00;99.90
14531;DHT22;7352;50.866;4.366;2023-08-20T01:54:57;22.80;99.90
14531;DHT22;7352;50.866;4.366;2023-08-20T01:57:24;23.00;99.90
14531;DHT22;7352;50.866;4.366;2023-08-20T01:59:51;23.00;99.90
14531;DHT22;7352;50.866;4.366;2023-08-20T02:02:18;22.90;99.90
14531;DHT22;7352;50.866;4.366;2023-08-20T02:04:47;22.80;99.90
14531;DHT22;7352;50.866;4.366;2023-08-20T02:07:14;23.00;99.90
14531;DHT22;7352;50.866;4.366;2023-08-20T02:09:41;22.80;99.90
14531;DHT22;7352;50.866;4.366;2023-08-20T02:12:08;22.70;99.90
14531;DHT22;7352;50.866;4.366;2023-08-20T02:14:35;22.80;99.90
14531;DHT22;7352;50.866;4.366;2023-08-20T02:17:02;22.60;99.90
14531;DHT22;7352;50.866;4.366;2023-08-20T02:19:29;22.60;99.90
14531;DHT22;7352;50.866;4.366;2023-08-20T02:21:58;22.60;99.90
14531;DHT22;7352;50.866;4.366;2023-08-20T02:24:25;22.60;99.90
14531;DHT22;7352;50.866;4.366;2023-08-20T02:26:52;22.80;99.90
14531;DHT22;7352;50.866;4.366;2023-08-20T02:29:19;22.40;99.90
14531;DHT22;7352;50.866;4.366;2023-08-20T02:31:46;22.20;99.90
14531;DHT22;7352;50.866;4.366;2023-08-20T02:34:13;22.10;99.90
14531;DHT22;7352;50.866;4.366;2023-08-20T02:36:40;22.20;99.90
14531;DHT22;7352;50.866;4.366;2023-08-20T02:39:08;22.10;99.90
14531;DHT22;7352;50.866;4.366;2023-08-20T02:41:35;22.20;99.90
14531;DHT22;7352;50.866;4.366;2023-08-20T02:44:02;22.20;99.90
14531;DHT22;7352;50.866;4.366;2023-08-20T02:46:30;22.20;99.90
14531;DHT22;7352;50.866;4.366;2023-08-20T02:48:56;22.10;99.90
14531;DHT22;7352;50.866;4.366;2023-08-20T02:51:23;22.00;99.90
14531;DHT22;7352;50.866;4.366;2023-08-20T02:53:50;21.90;99.90
14531;DHT22;7352;50.866;4.366;2023-08-20T02:56:19;21.90;99.90
14531;DHT22;7352;50.866;4.366;2023-08-20T02:58:46;22.00;99.90
14531;DHT22;7352;50.866;4.366;2023-08-20T03:01:20;21.90;99.90
14531;DHT22;7352;50.866;4.366;2023-08-20T03:03:47;22.00;99.90
14531;DHT22;7352;50.866;4.366;2023-08-20T03:06:14;22.00;99.90
14531;DHT22;7352;50.866;4.366;2023-08-20T03:08:41;21.80;99.90
14531;DHT22;7352;50.866;4.366;2023-08-20T03:11:08;21.70;99.90
14531;DHT22;7352;50.866;4.366;2023-08-20T03:13:36;21.70;99.90
14531;DHT22;7352;50.866;4.366;2023-08-20T03:16:04;21.70;99.90
14531;DHT22;7352;50.866;4.366;2023-08-20T03:18:31;21.60;99.90
14531;DHT22;7352;50.866;4.366;2023-08-20T03:20:58;21.50;99.90
14531;DHT22;7352;50.866;4.366;2023-08-20T03:23:25;21.60;99.90
14531;DHT22;7352;50.866;4.366;2023-08-20T03:25:52;21.30;99.90
14531;DHT22;7352;50.866;4.366;2023-08-20T03:28:20;21.50;99.90
14531;DHT22;7352;50.866;4.366;2023-08-20T03:30:49;21.20;99.90
14531;DHT22;7352;50.866;4.366;2023-08-20T03:33:16;21.20;99.90
14531;DHT22;7352;50.866;4.366;2023-08-20T03:35:43;21.20;99.90
14531;DHT22;7352;50.866;4.366;2023-08-20T03:38:10;21.30;99.90
14531;DHT22;7352;50.866;4.366;2023-08-20T03:40:37;21.30;99.90
14531;DHT22;7352;50.866;4.366;2023-08-20T03:43:04;21.30;99.90
14531;DHT22;7352;50.866;4.366;2023-08-20T03:45:31;21.20;99.90
14531;DHT22;7352;50.866;4.366;2023-08-20T03:47:59;21.40;99.90
14531;DHT22;7352;50.866;4.366;2023-08-20T03:50:26;21.20;99.90
14531;DHT22;7352;50.866;4.366;2023-08-20T03:52:53;21.20;99.90
14531;DHT22;7352;50.866;4.366;2023-08-20T03:55:20;21.00;99.90
14531;DHT22;7352;50.866;4.366;2023-08-20T03:57:47;21.00;99.90
14531;DHT22;7352;50.866;4.366;2023-08-20T04:00:15;21.20;99.90
14531;DHT22;7352;50.866;4.366;2023-08-20T04:02:42;21.20;99.90
14531;DHT22;7352;50.866;4.366;2023-08-20T04:05:10;21.30;99.90
14531;DHT22;7352;50.866;4.366;2023-08-20T04:07:37;21.20;99.90
14531;DHT22;7352;50.866;4.366;2023-08-20T04:10:04;21.20;99.90
14531;DHT22;7352;50.866;4.366;2023-08-20T04:12:32;21.30;99.90
14531;DHT22;7352;50.866;4.366;2023-08-20T04:14:58;21.40;99.90
14531;DHT22;7352;50.866;4.366;2023-08-20T04:17:25;21.20;99.90
14531;DHT22;7352;50.866;4.366;2023-08-20T04:19:52;20.90;99.90
14531;DHT22;7352;50.866;4.366;2023-08-20T04:22:21;21.00;99.90
14531;DHT22;7352;50.866;4.366;2023-08-20T04:24:48;21.00;99.90
14531;DHT22;7352;50.866;4.366;2023-08-20T04:27:21;21.00;99.90
14531;DHT22;7352;50.866;4.366;2023-08-20T04:29:48;21.00;99.90
14531;DHT22;7352;50.866;4.366;2023-08-20T04:32:14;21.10;99.90
14531;DHT22;7352;50.866;4.366;2023-08-20T04:34:42;21.00;99.90
14531;DHT22;7352;50.866;4.366;2023-08-20T04:37:09;21.10;99.90
14531;DHT22;7352;50.866;4.366;2023-08-20T04:39:40;21.10;99.90
14531;DHT22;7352;50.866;4.366;2023-08-20T04:42:07;21.10;99.90
14531;DHT22;7352;50.866;4.366;2023-08-20T04:44:34;21.00;99.90
14531;DHT22;7352;50.866;4.366;2023-08-20T04:47:01;21.10;99.90
14531;DHT22;7352;50.866;4.366;2023-08-20T04:49:28;21.00;99.90
14531;DHT22;7352;50.866;4.366;2023-08-20T04:51:55;20.80;99.90
14531;DHT22;7352;50.866;4.366;2023-08-20T04:54:22;20.90;99.90
14531;DHT22;7352;50.866;4.366;2023-08-20T04:56:51;21.00;99.90
14531;DHT22;7352;50.866;4.366;2023-08-20T04:59:17;21.10;99.90
14531;DHT22;7352;50.866;4.366;2023-08-20T05:01:44;20.90;99.90
14531;DHT22;7352;50.866;4.366;2023-08-20T05:04:11;20.80;99.90
14531;DHT22;7352;50.866;4.366;2023-08-20T05:06:38;21.00;99.90
14531;DHT22;7352;50.866;4.366;2023-08-20T05:09:05;21.00;99.90
14531;DHT22;7352;50.866;4.366;2023-08-20T05:11:32;20.90;99.90
14531;DHT22;7352;50.866;4.366;2023-08-20T05:14:01;21.00;99.90
14531;DHT22;7352;50.866;4.366;2023-08-20T05:16:27;21.00;99.90
14531;DHT22;7352;50.866;4.366;2023-08-20T05:18:54;21.10;99.90
14531;DHT22;7352;50.866;4.366;2023-08-20T05:21:21;20.90;99.90
14531;DHT22;7352;50.866;4.366;2023-08-20T05:23:48;21.00;99.90
14531;DHT22;7352;50.866;4.366;2023-08-20T05:26:15;21.00;99.90
14531;DHT22;7352;50.866;4.366;2023-08-20T05:28:42;21.00;99.90
14531;DHT22;7352;50.866;4.366;2023-08-20T05:31:11;21.00;99.90
14531;DHT22;7352;50.866;4.366;2023-08-20T05:33:38;21.10;99.90
14531;DHT22;7352;50.866;4.366;2023-08-20T05:36:05;21.20;99.90
14531;DHT22;7352;50.866;4.366;2023-08-20T05:38:32;21.20;99.90
14531;DHT22;7352;50.866;4.366;2023-08-20T05:40:59;21.10;99.90
14531;DHT22;7352;50.866;4.366;2023-08-20T05:43:26;21.20;99.90
14531;DHT22;7352;50.866;4.366;2023-08-20T05:45:53;21.20;99.90
14531;DHT22;7352;50.866;4.366;2023-08-20T05:48:22;21.30;99.90
14531;DHT22;7352;50.866;4.366;2023-08-20T05:50:48;21.50;99.90
14531;DHT22;7352;50.866;4.366;2023-08-20T05:53:16;21.60;99.90
14531;DHT22;7352;50.866;4.366;2023-08-20T05:55:43;21.50;99.90
14531;DHT22;7352;50.866;4.366;2023-08-20T05:58:09;21.60;99.90
14531;DHT22;7352;50.866;4.366;2023-08-20T06:00:37;21.70;99.90
14531;DHT22;7352;50.866;4.366;2023-08-20T06:03:04;21.70;99.90
14531;DHT22;7352;50.866;4.366;2023-08-20T06:05:34;21.70;99.90
14531;DHT22;7352;50.866;4.366;2023-08-20T06:08:01;21.70;99.90
14531;DHT22;7352;50.866;4.366;2023-08-20T06:10:28;21.70;99.90
14531;DHT22;7352;50.866;4.366;2023-08-20T06:12:55;21.70;99.90
14531;DHT22;7352;50.866;4.366;2023-08-20T06:15:22;21.80;99.90
14531;DHT22;7352;50.866;4.366;2023-08-20T06:17:49;21.90;99.90
14531;DHT22;7352;50.866;4.366;2023-08-20T06:20:17;21.90;99.90
14531;DHT22;7352;50.866;4.366;2023-08-20T06:22:45;21.90;99.90
14531;DHT22;7352;50.866;4.366;2023-08-20T06:25:12;22.00;99.90
14531;DHT22;7352;50.866;4.366;2023-08-20T06:27:41;22.10;99.90
14531;DHT22;7352;50.866;4.366;2023-08-20T06:30:08;22.20;99.90
14531;DHT22;7352;50.866;4.366;2023-08-20T06:32:35;22.20;99.90
14531;DHT22;7352;50.866;4.366;2023-08-20T06:35:03;22.30;99.90
14531;DHT22;7352;50.866;4.366;2023-08-20T06:37:30;22.40;99.90
14531;DHT22;7352;50.866;4.366;2023-08-20T06:39:58;22.60;99.90
14531;DHT22;7352;50.866;4.366;2023-08-20T06:42:25;22.70;99.90
14531;DHT22;7352;50.866;4.366;2023-08-20T06:44:52;22.70;99.90
14531;DHT22;7352;50.866;4.366;2023-08-20T06:47:19;22.70;99.90
14531;DHT22;7352;50.866;4.366;2023-08-20T06:49:46;22.60;99.90
14531;DHT22;7352;50.866;4.366;2023-08-20T06:52:13;22.80;99.90
14531;DHT22;7352;50.866;4.366;2023-08-20T06:54:40;23.20;99.90
14531;DHT22;7352;50.866;4.366;2023-08-20T06:57:08;23.20;99.90
14531;DHT22;7352;50.866;4.366;2023-08-20T06:59:35;23.20;99.90
14531;DHT22;7352;50.866;4.366;2023-08-20T07:02:03;23.20;99.90
14531;DHT22;7352;50.866;4.366;2023-08-20T07:04:30;23.30;99.90
14531;DHT22;7352;50.866;4.366;2023-08-20T07:06:59;23.20;99.90
14531;DHT22;7352;50.866;4.366;2023-08-20T07:09:25;23.20;99.90
14531;DHT22;7352;50.866;4.366;2023-08-20T07:11:52;23.20;99.90
14531;DHT22;7352;50.866;4.366;2023-08-20T07:14:22;23.20;99.90
14531;DHT22;7352;50.866;4.366;2023-08-20T07:16:49;23.40;99.90
14531;DHT22;7352;50.866;4.366;2023-08-20T07:19:16;23.60;99.90
14531;DHT22;7352;50.866;4.366;2023-08-20T07:21:43;23.60;99.90
14531;DHT22;7352;50.866;4.366;2023-08-20T07:24:10;23.70;99.90
14531;DHT22;7352;50.866;4.366;2023-08-20T07:26:37;23.80;99.90
14531;DHT22;7352;50.866;4.366;2023-08-20T07:29:04;23.90;99.90
14531;DHT22;7352;50.866;4.366;2023-08-20T07:31:33;23.90;99.90
14531;DHT22;7352;50.866;4.366;2023-08-20T07:34:02;24.00;99.90
14531;DHT22;7352;50.866;4.366;2023-08-20T07:36:30;23.90;99.90
14531;DHT22;7352;50.866;4.366;2023-08-20T07:38:57;23.90;99.90
14531;DHT22;7352;50.866;4.366;2023-08-20T07:41:24;24.10;99.90
14531;DHT22;7352;50.866;4.366;2023-08-20T07:43:51;24.00;99.90
14531;DHT22;7352;50.866;4.366;2023-08-20T07:46:18;24.10;99.90
14531;DHT22;7352;50.866;4.366;2023-08-20T07:48:47;24.20;99.90
14531;DHT22;7352;50.866;4.366;2023-08-20T07:51:19;24.40;99.90
14531;DHT22;7352;50.866;4.366;2023-08-20T07:53:46;24.50;99.90
14531;DHT22;7352;50.866;4.366;2023-08-20T07:56:13;24.50;99.90
14531;DHT22;7352;50.866;4.366;2023-08-20T07:58:40;24.50;99.90
14531;DHT22;7352;50.866;4.366;2023-08-20T08:01:07;24.50;99.90
14531;DHT22;7352;50.866;4.366;2023-08-20T08:03:34;24.50;99.90
14531;DHT22;7352;50.866;4.366;2023-08-20T08:06:03;24.50;99.90
14531;DHT22;7352;50.866;4.366;2023-08-20T08:08:30;24.50;99.90
14531;DHT22;7352;50.866;4.366;2023-08-20T08:10:57;24.60;99.90
14531;DHT22;7352;50.866;4.366;2023-08-20T08:13:24;24.70;99.90
14531;DHT22;7352;50.866;4.366;2023-08-20T08:15:51;24.80;99.90
14531;DHT22;7352;50.866;4.366;2023-08-20T08:18:18;25.10;99.90
14531;DHT22;7352;50.866;4.366;2023-08-20T08:20:45;25.00;98.70
14531;DHT22;7352;50.866;4.366;2023-08-20T08:23:14;25.10;98.40
14531;DHT22;7352;50.866;4.366;2023-08-20T08:25:44;25.10;98.80
14531;DHT22;7352;50.866;4.366;2023-08-20T08:28:12;25.00;98.70
14531;DHT22;7352;50.866;4.366;2023-08-20T08:30:40;24.90;98.80
14531;DHT22;7352;50.866;4.366;2023-08-20T08:33:07;24.80;98.80
14531;DHT22;7352;50.866;4.366;2023-08-20T08:35:35;25.00;99.10
14531;DHT22;7352;50.866;4.366;2023-08-20T08:38:02;25.10;98.60
14531;DHT22;7352;50.866;4.366;2023-08-20T08:40:33;25.30;98.40
14531;DHT22;7352;50.866;4.366;2023-08-20T08:43:00;25.40;98.40
14531;DHT22;7352;50.866;4.366;2023-08-20T08:45:29;25.50;97.70
14531;DHT22;7352;50.866;4.366;2023-08-20T08:47:56;25.60;97.80
14531;DHT22;7352;50.866;4.366;2023-08-20T08:50:23;25.70;97.70
14531;DHT22;7352;50.866;4.366;2023-08-20T08:52:53;25.60;97.90
14531;DHT22;7352;50.866;4.366;2023-08-20T08:55:21;25.70;97.40
14531;DHT22;7352;50.866;4.366;2023-08-20T08:57:56;25.80;96.90
14531;DHT22;7352;50.866;4.366;2023-08-20T09:00:23;25.80;96.20
14531;DHT22;7352;50.866;4.366;2023-08-20T09:02:52;25.80;95.80
14531;DHT22;7352;50.866;4.366;2023-08-20T09:05:23;25.80;95.80
14531;DHT22;7352;50.866;4.366;2023-08-20T09:07:55;25.80;95.90
14531;DHT22;7352;50.866;4.366;2023-08-20T09:10:26;25.90;96.40
14531;DHT22;7352;50.866;4.366;2023-08-20T09:12:56;25.70;95.60
14531;DHT22;7352;50.866;4.366;2023-08-20T09:15:31;25.70;95.00
14531;DHT22;7352;50.866;4.366;2023-08-20T09:18:01;25.80;94.80
14531;DHT22;7352;50.866;4.366;2023-08-20T09:20:37;25.90;94.60
14531;DHT22;7352;50.866;4.366;2023-08-20T09:23:04;26.10;94.70
14531;DHT22;7352;50.866;4.366;2023-08-20T09:25:31;26.00;94.30
14531;DHT22;7352;50.866;4.366;2023-08-20T09:28:04;26.20;94.30
14531;DHT22;7352;50.866;4.366;2023-08-20T09:30:34;26.20;94.40
14531;DHT22;7352;50.866;4.366;2023-08-20T09:33:09;26.40;93.90
14531;DHT22;7352;50.866;4.366;2023-08-20T09:35:39;26.40;93.50
14531;DHT22;7352;50.866;4.366;2023-08-20T09:38:15;26.10;94.20
14531;DHT22;7352;50.866;4.366;2023-08-20T09:40:46;26.30;94.50
14531;DHT22;7352;50.866;4.366;2023-08-20T09:43:16;26.50;94.20
14531;DHT22;7352;50.866;4.366;2023-08-20T09:45:47;26.60;93.70
14531;DHT22;7352;50.866;4.366;2023-08-20T09:48:18;26.40;94.00
14531;DHT22;7352;50.866;4.366;2023-08-20T09:50:49;26.50;94.10
14531;DHT22;7352;50.866;4.366;2023-08-20T09:53:25;26.60;94.40
14531;DHT22;7352;50.866;4.366;2023-08-20T09:55:56;26.70;94.10
14531;DHT22;7352;50.866;4.366;2023-08-20T09:58:31;26.90;93.50
14531;DHT22;7352;50.866;4.366;2023-08-20T10:01:07;27.00;93.40
14531;DHT22;7352;50.866;4.366;2023-08-20T10:03:41;27.00;92.80
14531;DHT22;7352;50.866;4.366;2023-08-20T10:06:11;26.90;93.40
14531;DHT22;7352;50.866;4.366;2023-08-20T10:08:39;26.90;93.20
14531;DHT22;7352;50.866;4.366;2023-08-20T10:11:06;26.90;93.70
14531;DHT22;7352;50.866;4.366;2023-08-20T10:13:44;26.80;92.70
14531;DHT22;7352;50.866;4.366;2023-08-20T10:16:12;27.00;92.00
14531;DHT22;7352;50.866;4.366;2023-08-20T10:18:40;26.90;92.20
14531;DHT22;7352;50.866;4.366;2023-08-20T10:21:09;26.90;92.30
14531;DHT22;7352;50.866;4.366;2023-08-20T10:23:56;27.00;92.80
14531;DHT22;7352;50.866;4.366;2023-08-20T10:26:23;27.30;92.50
14531;DHT22;7352;50.866;4.366;2023-08-20T10:31:58;27.40;92.00
14531;DHT22;7352;50.866;4.366;2023-08-20T10:34:37;27.30;92.10
14531;DHT22;7352;50.866;4.366;2023-08-20T11:27:13;27.80;91.60
14531;DHT22;7352;50.866;4.366;2023-08-20T11:29:57;27.80;92.20
14531;DHT22;7352;50.866;4.366;2023-08-20T11:35:55;27.80;92.20
14531;DHT22;7352;50.866;4.366;2023-08-20T11:39:49;27.80;92.60
14531;DHT22;7352;50.866;4.366;2023-08-20T12:50:38;29.40;92.40
14531;DHT22;7352;50.866;4.366;2023-08-20T12:53:19;29.40;92.30
14531;DHT22;7352;50.866;4.366;2023-08-20T12:56:00;29.20;92.20
14531;DHT22;7352;50.866;4.366;2023-08-20T12:58:44;29.00;92.50
14531;DHT22;7352;50.866;4.366;2023-08-20T13:01:25;29.20;92.40
14531;DHT22;7352;50.866;4.366;2023-08-20T13:04:09;29.30;92.40
14531;DHT22;7352;50.866;4.366;2023-08-20T13:26:30;30.10;91.30
14531;DHT22;7352;50.866;4.366;2023-08-20T13:29:11;30.00;91.50
14531;DHT22;7352;50.866;4.366;2023-08-20T13:31:55;30.10;91.30
14531;DHT22;7352;50.866;4.366;2023-08-20T13:34:40;30.30;91.60
14531;DHT22;7352;50.866;4.366;2023-08-20T13:37:28;30.50;90.90
14531;DHT22;7352;50.866;4.366;2023-08-20T13:40:19;30.60;90.60
14531;DHT22;7352;50.866;4.366;2023-08-20T15:13:42;31.60;90.50
14531;DHT22;7352;50.866;4.366;2023-08-20T15:16:29;31.60;90.80
14531;DHT22;7352;50.866;4.366;2023-08-20T15:22:26;31.80;90.30
14531;DHT22;7352;50.866;4.366;2023-08-20T20:19:43;26.20;99.40
14531;DHT22;7352;50.866;4.366;2023-08-20T20:22:12;26.10;99.60
14531;DHT22;7352;50.866;4.366;2023-08-20T20:24:40;26.10;99.60
14531;DHT22;7352;50.866;4.366;2023-08-20T20:27:08;26.10;99.60
14531;DHT22;7352;50.866;4.366;2023-08-20T20:29:36;26.10;99.60
14531;DHT22;7352;50.866;4.366;2023-08-20T20:32:03;25.90;99.70
14531;DHT22;7352;50.866;4.366;2023-08-20T20:34:31;25.90;99.90
14531;DHT22;7352;50.866;4.366;2023-08-20T20:37:04;25.90;99.70
14531;DHT22;7352;50.866;4.366;2023-08-20T20:39:37;25.80;99.90
14531;DHT22;7352;50.866;4.366;2023-08-20T20:42:08;25.80;99.90
14531;DHT22;7352;50.866;4.366;2023-08-20T20:44:36;25.80;99.90
14531;DHT22;7352;50.866;4.366;2023-08-20T20:47:57;25.80;99.90
14531;DHT22;7352;50.866;4.366;2023-08-20T21:42:27;25.00;99.90
14531;DHT22;7352;50.866;4.366;2023-08-20T21:44:57;24.80;99.90
14531;DHT22;7352;50.866;4.366;2023-08-20T21:47:26;24.90;99.90
14531;DHT22;7352;50.866;4.366;2023-08-20T21:49:54;24.90;99.90
14531;DHT22;7352;50.866;4.366;2023-08-20T21:52:22;24.90;99.90
14531;DHT22;7352;50.866;4.366;2023-08-20T22:14:44;24.90;99.90
14531;DHT22;7352;50.866;4.366;2023-08-20T22:17:12;24.70;99.90
14531;DHT22;7352;50.866;4.366;2023-08-20T22:19:40;24.70;99.90
14531;DHT22;7352;50.866;4.366;2023-08-20T22:22:16;24.80;99.90
14531;DHT22;7352;50.866;4.366;2023-08-20T22:24:47;24.90;99.90
14531;DHT22;7352;50.866;4.366;2023-08-20T22:27:16;24.90;99.90
14531;DHT22;7352;50.866;4.366;2023-08-20T22:29:45;25.00;99.90
14531;DHT22;7352;50.866;4.366;2023-08-20T22:32:12;25.00;99.90
14531;DHT22;7352;50.866;4.366;2023-08-20T22:34:55;24.80;99.90
14531;DHT22;7352;50.866;4.366;2023-08-20T22:37:36;24.80;99.90
14531;DHT22;7352;50.866;4.366;2023-08-20T22:40:04;24.60;99.90
14531;DHT22;7352;50.866;4.366;2023-08-20T22:42:33;24.60;99.90
14531;DHT22;7352;50.866;4.366;2023-08-20T22:45:04;24.60;99.90
14531;DHT22;7352;50.866;4.366;2023-08-20T22:47:32;24.60;99.90
14531;DHT22;7352;50.866;4.366;2023-08-20T22:49:59;24.50;99.90
14531;DHT22;7352;50.866;4.366;2023-08-20T22:52:26;24.50;99.90
14531;DHT22;7352;50.866;4.366;2023-08-20T22:54:53;24.50;99.90
14531;DHT22;7352;50.866;4.366;2023-08-20T22:57:23;24.40;99.90
14531;DHT22;7352;50.866;4.366;2023-08-20T22:59:51;24.30;99.90
14531;DHT22;7352;50.866;4.366;2023-08-20T23:02:19;24.30;99.90
14531;DHT22;7352;50.866;4.366;2023-08-20T23:04:49;24.30;99.90
14531;DHT22;7352;50.866;4.366;2023-08-20T23:07:19;24.30;99.90
14531;DHT22;7352;50.866;4.366;2023-08-20T23:09:46;24.20;99.90
14531;DHT22;7352;50.866;4.366;2023-08-20T23:12:13;24.10;99.90
14531;DHT22;7352;50.866;4.366;2023-08-20T23:14:40;24.10;99.90
14531;DHT22;7352;50.866;4.366;2023-08-20T23:17:08;24.10;99.90
14531;DHT22;7352;50.866;4.366;2023-08-20T23:19:59;24.00;99.90
14531;DHT22;7352;50.866;4.366;2023-08-20T23:22:32;24.00;99.90
14531;DHT22;7352;50.866;4.366;2023-08-20T23:25:36;23.80;99.90
14531;DHT22;7352;50.866;4.366;2023-08-20T23:28:03;23.90;99.90
14531;DHT22;7352;50.866;4.366;2023-08-20T23:30:31;23.80;99.90
14531;DHT22;7352;50.866;4.366;2023-08-20T23:32:58;24.00;99.90
14531;DHT22;7352;50.866;4.366;2023-08-20T23:35:29;23.90;99.90
14531;DHT22;7352;50.866;4.366;2023-08-20T23:37:57;23.90;99.90
14531;DHT22;7352;50.866;4.366;2023-08-20T23:40:25;23.90;99.90
14531;DHT22;7352;50.866;4.366;2023-08-20T23:42:52;23.70;99.90
14531;DHT22;7352;50.866;4.366;2023-08-20T23:45:20;23.80;99.90
14531;DHT22;7352;50.866;4.366;2023-08-20T23:47:47;23.80;99.90
14531;DHT22;7352;50.866;4.366;2023-08-20T23:50:18;23.90;99.90
14531;DHT22;7352;50.866;4.366;2023-08-20T23:53:01;23.80;99.90
14531;DHT22;7352;50.866;4.366;2023-08-20T23:55:29;23.70;99.90
14531;DHT22;7352;50.866;4.366;2023-08-20T23:58:10;23.70;99.90
